Stations météo

réclame
Mon MeteoGroup
Andujar, Espagne (8347): Température de l'air & dewpoint: 18.04.2018 08:00:00 - 24.04.2018 08:00:00 (CEST)Andujar, Espagne (8347): Vitesse du vent & gusts: 18.04.2018 08:00:00 - 24.04.2018 08:00:00 (CEST)Andujar, Espagne (8347): Direction du vent: 18.04.2018 08:00:00 - 24.04.2018 08:00:00 (CEST)Andujar, Espagne (8347): reduced air pressure: 18.04.2018 08:00:00 - 24.04.2018 08:00:00 (CEST)Andujar, Espagne (8347): Quantités de précipitations: 18.04.2018 08:00:00 - 24.04.2018 08:00:00 (CEST)
Date & Time tt [°C] td [°C] ff [km/h] ff [knt] fx [km/h] fx [knt] dd ppp [hPa] rr [mm]
24.04.2018 08:00:00 - - - - - - - - -
24.04.2018 07:00:00 17,3 12,0 3 2 8 4 ESE 1011,4 0,0
24.04.2018 06:00:00 17,5 12,8 5 3 9 5 ESE 1011,1 0,0
24.04.2018 05:00:00 18,7 12,8 0 0 8 4 WSW 1010,9 0,0
24.04.2018 04:00:00 19,6 12,1 3 2 14 7 ESE 1011,2 0,0
24.04.2018 03:00:00 21,9 11,9 9 5 23 13 E 1011,1 0,0
24.04.2018 02:00:00 22,1 12,6 5 3 13 7 E 1010,6 -
24.04.2018 01:00:00 18,7 12,6 4 2 10 5 SE 1012,0 0,0
24.04.2018 00:00:00 21,8 11,8 1 1 29 15 S 1012,5 0,0
23.04.2018 23:00:00 22,8 11,8 10 5 24 13 E 1010,3 0,0
23.04.2018 22:00:00 19,8 11,6 5 3 21 11 ESE 1010,7 0,0
23.04.2018 21:00:00 22,1 13,5 11 6 27 15 ESE 1009,5 0,0
23.04.2018 20:00:00 23,4 13,3 13 7 25 13 ESE 1009,3 -
23.04.2018 19:00:00 25,1 13,7 8 5 26 14 E 1008,9 0,0
23.04.2018 18:00:00 24,8 14,5 9 5 27 14 E 1010,0 0,0
23.04.2018 17:00:00 24,5 15,7 6 3 20 11 E 1010,6 0,1
23.04.2018 16:00:00 25,6 15,9 1 1 16 9 SSW 1010,7 0,0
23.04.2018 15:00:00 22,8 14,6 5 3 21 11 SE 1011,8 0,0
23.04.2018 14:00:00 22,6 14,1 8 4 16 9 ESE 1012,2 -
23.04.2018 13:00:00 21,2 13,9 5 3 20 11 E 1013,0 0,0
23.04.2018 12:00:00 20,0 14,1 9 5 29 15 E 1014,3 0,0
23.04.2018 11:00:00 17,6 14,9 6 3 15 8 ESE 1014,6 0,1
23.04.2018 10:00:00 17,9 16,9 4 2 9 5 E 1013,5 0,0
23.04.2018 09:00:00 16,9 16,7 2 1 8 4 ESE 1013,7 0,0
23.04.2018 08:00:00 14,9 14,7 4 2 7 4 SSE 1013,0 -
23.04.2018 07:00:00 15,0 14,8 2 1 10 5 SE 1013,1 0,0
23.04.2018 06:00:00 16,3 16,1 7 4 21 12 E 1012,9 0,0
23.04.2018 05:00:00 17,7 17,5 6 3 14 8 E 1013,1 0,1
23.04.2018 04:00:00 16,9 16,7 7 4 13 7 W 1013,7 0,4
23.04.2018 03:00:00 17,3 17,1 12 6 21 11 WNW 1015,1 0,4
23.04.2018 02:00:00 18,2 18,0 16 8 46 25 SW 1015,3 -
23.04.2018 01:00:00 20,1 18,2 8 5 21 11 NE 1011,8 0,1
23.04.2018 00:00:00 21,5 16,5 12 7 42 23 W 1012,8 0,1
22.04.2018 23:00:00 20,9 17,7 21 11 33 18 WSW 1013,1 0,1
22.04.2018 22:00:00 22,0 16,3 10 5 24 13 WNW 1010,3 0,0
22.04.2018 21:00:00 24,0 16,3 15 8 22 12 WSW 1009,1 0,0
22.04.2018 20:00:00 26,5 15,9 13 7 20 11 W 1008,4 -
22.04.2018 19:00:00 28,8 16,4 8 4 16 8 W 1008,2 0,0
22.04.2018 18:00:00 29,1 16,0 6 4 16 8 W 1008,3 0,0
22.04.2018 17:00:00 30,0 17,1 2 1 15 8 E 1008,3 0,0
22.04.2018 16:00:00 28,7 17,5 5 3 14 8 ESE 1009,0 0,0
22.04.2018 15:00:00 27,5 17,4 6 3 18 10 ENE 1009,4 0,0
22.04.2018 14:00:00 25,0 16,4 5 3 17 9 E 1009,9 -
22.04.2018 13:00:00 23,4 14,7 6 4 18 10 E 1011,1 0,0
22.04.2018 12:00:00 23,1 14,6 5 3 15 8 E 1011,4 0,0
22.04.2018 11:00:00 21,5 15,1 5 3 16 9 E 1011,1 0,0
22.04.2018 10:00:00 19,3 15,0 6 3 13 7 E 1011,3 0,0
22.04.2018 09:00:00 17,0 14,0 9 5 14 7 E 1011,4 0,0
22.04.2018 08:00:00 15,0 12,8 6 3 16 9 ESE 1011,4 -
22.04.2018 07:00:00 15,8 13,0 9 5 15 8 E 1011,0 0,0
22.04.2018 06:00:00 15,8 13,0 5 3 15 8 E 1011,8 0,0
22.04.2018 05:00:00 17,4 12,7 9 5 20 11 E 1012,2 0,0
22.04.2018 04:00:00 15,0 13,4 3 2 8 4 ESE 1012,7 0,0
22.04.2018 03:00:00 15,6 13,7 1 1 10 6 E 1013,4 0,0
22.04.2018 02:00:00 16,3 13,9 2 1 6 3 SE 1013,7 -
22.04.2018 01:00:00 16,9 13,5 1 1 11 6 SE 1013,7 0,0
22.04.2018 00:00:00 17,9 13,9 1 1 8 4 SE 1013,2 0,0
21.04.2018 23:00:00 17,8 14,5 3 2 11 6 ESE 1012,2 0,0
21.04.2018 22:00:00 20,4 15,8 6 3 13 7 ESE 1011,6 0,0
21.04.2018 21:00:00 20,7 14,3 2 1 18 10 E 1011,5 0,0
21.04.2018 20:00:00 23,5 15,5 4 2 14 7 ENE 1010,4 -
21.04.2018 19:00:00 24,7 16,1 5 3 13 7 NE 1010,5 0,0
21.04.2018 18:00:00 26,0 16,0 6 4 16 9 NNE 1011,1 0,0
21.04.2018 17:00:00 26,1 16,9 6 3 15 8 NNE 1011,4 0,0
21.04.2018 16:00:00 25,0 16,1 6 3 17 9 ENE 1011,6 0,0
21.04.2018 15:00:00 25,8 15,8 6 4 22 12 ENE 1012,3 0,0
21.04.2018 14:00:00 24,9 15,8 8 4 27 15 E 1012,6 -
21.04.2018 13:00:00 22,6 14,4 8 4 28 15 E 1013,0 0,0
21.04.2018 12:00:00 21,9 15,3 10 6 29 16 E 1013,3 0,0
21.04.2018 11:00:00 18,9 13,3 12 6 23 13 E 1013,7 0,0
21.04.2018 10:00:00 17,6 13,8 6 3 14 7 E 1014,0 0,0
21.04.2018 09:00:00 15,4 12,8 2 1 12 6 SE 1014,7 0,0
21.04.2018 08:00:00 15,4 12,3 5 3 11 6 ESE 1014,7 -
21.04.2018 07:00:00 15,8 12,2 6 3 26 14 SE 1014,3 0,0
21.04.2018 06:00:00 16,9 12,2 10 5 28 15 ENE 1013,6 0,0
21.04.2018 05:00:00 16,9 12,2 6 4 25 13 E 1013,6 0,0
21.04.2018 04:00:00 17,1 14,0 11 6 26 14 E 1012,4 0,0
21.04.2018 03:00:00 15,7 15,1 17 9 29 16 E 1013,2 0,0
21.04.2018 02:00:00 14,8 14,6 4 2 7 4 ESE 1016,4 -
21.04.2018 01:00:00 15,6 15,3 1 1 5 3 SSW 1017,2 0,0
21.04.2018 00:00:00 15,9 14,8 1 0 8 4 N 1016,1 0,0
20.04.2018 23:00:00 17,6 13,6 7 4 19 10 W 1015,5 0,0
20.04.2018 22:00:00 18,9 13,8 14 8 24 13 W 1014,3 0,0
20.04.2018 21:00:00 20,5 13,9 17 9 27 15 W 1013,3 0,0
20.04.2018 20:00:00 24,2 13,2 9 5 21 11 E 1011,8 -
20.04.2018 19:00:00 25,5 14,0 6 3 21 11 E 1011,4 0,0
20.04.2018 18:00:00 26,6 14,0 5 3 22 12 ENE 1011,3 0,0
20.04.2018 17:00:00 26,6 13,7 5 3 20 11 E 1011,6 0,0
20.04.2018 16:00:00 26,0 13,2 8 4 24 13 E 1012,2 0,0
20.04.2018 15:00:00 25,5 13,7 6 3 30 16 E 1012,7 0,0
20.04.2018 14:00:00 24,3 13,3 13 7 29 16 E 1013,5 -
20.04.2018 13:00:00 23,0 13,5 13 7 29 15 E 1014,2 0,0
20.04.2018 12:00:00 21,4 13,1 13 7 29 15 E 1014,7 0,0
20.04.2018 11:00:00 20,0 13,0 16 8 30 16 E 1015,1 0,0
20.04.2018 10:00:00 18,0 12,8 16 8 26 14 E 1015,3 0,0
20.04.2018 09:00:00 15,5 12,4 7 4 20 11 E 1015,5 0,0
20.04.2018 08:00:00 12,8 11,6 8 5 19 10 ESE 1016,0 -
20.04.2018 07:00:00 13,7 12,1 8 4 17 9 E 1015,6 0,0
20.04.2018 06:00:00 13,5 12,2 8 4 16 9 ESE 1016,0 0,0
20.04.2018 05:00:00 12,0 11,6 1 1 9 5 SE 1016,2 0,0
20.04.2018 04:00:00 13,8 12,0 4 2 16 9 SE 1016,4 0,0
20.04.2018 03:00:00 14,4 12,6 5 3 13 7 E 1016,5 0,0
20.04.2018 02:00:00 14,9 13,0 4 2 10 6 ESE 1016,9 -
20.04.2018 01:00:00 16,6 12,7 6 3 13 7 ESE 1017,0 0,0
20.04.2018 00:00:00 15,9 13,1 2 1 9 5 ESE 1016,6 0,0
19.04.2018 23:00:00 18,5 12,7 6 3 13 7 ESE 1016,0 0,0
19.04.2018 22:00:00 17,7 11,2 0 0 7 4 ESE 1015,2 0,0
19.04.2018 21:00:00 21,2 10,4 4 2 18 10 ESE 1014,1 0,0
19.04.2018 20:00:00 25,2 10,3 11 6 24 13 E 1013,6 -
19.04.2018 19:00:00 26,5 11,0 6 3 13 7 E 1013,6 0,0
19.04.2018 18:00:00 28,0 12,0 4 2 13 7 E 1013,9 0,0
19.04.2018 17:00:00 28,4 11,9 3 2 13 7 NE 1014,3 0,0
19.04.2018 16:00:00 27,6 11,6 4 2 16 9 ENE 1015,2 0,0
19.04.2018 15:00:00 26,2 10,4 3 2 17 9 SE 1016,1 0,0
19.04.2018 14:00:00 25,9 10,9 3 2 22 12 SE 1017,2 -
19.04.2018 13:00:00 24,3 12,2 5 3 19 10 E 1018,0 0,0
19.04.2018 12:00:00 22,0 10,8 5 3 14 8 E 1018,7 0,0
19.04.2018 11:00:00 19,9 11,7 8 4 15 8 E 1019,2 0,0
19.04.2018 10:00:00 16,6 13,7 0 0 5 3 ESE 1019,7 0,0
19.04.2018 09:00:00 11,6 11,4 0 0 4 2 N 1020,1 0,0
19.04.2018 08:00:00 9,3 9,2 1 1 4 2 SW 1020,5 -
19.04.2018 07:00:00 9,3 9,2 0 0 4 2 SE 1020,2 0,0
19.04.2018 06:00:00 9,7 9,6 1 0 8 4 ESE 1020,2 0,0
19.04.2018 05:00:00 10,5 10,3 4 2 8 4 ESE 1020,5 0,0
19.04.2018 04:00:00 12,3 12,1 5 3 7 4 SW 1020,5 0,0
19.04.2018 03:00:00 12,4 12,2 2 1 9 5 WSW 1021,0 0,0
19.04.2018 02:00:00 13,7 13,6 1 1 6 3 SW 1021,1 -
19.04.2018 01:00:00 14,8 13,6 3 1 6 4 WSW 1020,7 0,0
19.04.2018 00:00:00 16,6 13,4 1 1 17 9 N 1020,2 0,0
18.04.2018 23:00:00 19,0 13,2 13 7 23 12 W 1019,4 0,0
18.04.2018 22:00:00 19,7 13,4 7 4 9 5 W 1018,5 0,0
18.04.2018 21:00:00 20,9 11,8 4 2 8 4 W 1017,8 0,0
18.04.2018 20:00:00 26,2 10,8 4 2 10 5 SW 1017,3 -
18.04.2018 19:00:00 26,9 12,5 3 2 12 6 N 1017,5 0,0
18.04.2018 18:00:00 27,8 12,2 6 4 14 8 NW 1017,9 0,0
18.04.2018 17:00:00 28,5 13,2 3 2 10 6 S 1018,3 0,0
18.04.2018 16:00:00 27,3 12,5 4 2 12 7 N 1018,9 0,0
18.04.2018 15:00:00 26,2 13,0 4 2 10 5 NE 1019,5 0,0
18.04.2018 14:00:00 25,6 12,7 1 0 10 5 ENE 1020,1 -
18.04.2018 13:00:00 23,7 13,6 3 2 11 6 ENE 1020,9 0,0
18.04.2018 12:00:00 22,3 13,4 1 1 8 4 SSE 1021,4 0,0
18.04.2018 11:00:00 18,8 12,7 1 1 7 4 WNW 1021,8 0,0
18.04.2018 10:00:00 15,2 12,7 1 0 4 2 NW 1022,3 0,0
18.04.2018 09:00:00 10,8 10,6 1 1 5 3 ESE 1022,6 0,0
18.04.2018 08:00:00 8,0 7,8 1 1 3 2 SE 1022,6 -

tt = Température de l'air
td = dewpoint
ff = Vitesse du vent
fx = gusts
dd = Direction du vent
ppp = reduced air pressure
rr = Quantités de précipitations

stations d'obs. à proximité